createdAt,value
2023-12-26T00:00:30.238Z,89.18
2023-12-26T00:02:56.973Z,89.14
2023-12-26T00:05:23.551Z,89.60
2023-12-26T00:07:49.929Z,89.36
2023-12-26T00:10:17.028Z,88.76
2023-12-26T00:12:43.851Z,89.26
2023-12-26T00:15:10.635Z,89.25
2023-12-26T00:17:37.354Z,89.52
2023-12-26T00:20:05.999Z,89.25
2023-12-26T00:22:32.354Z,88.93
2023-12-26T00:24:58.712Z,89.67
2023-12-26T00:27:25.222Z,89.40
2023-12-26T00:29:57.879Z,89.71
2023-12-26T00:35:16.087Z,89.35
2023-12-26T00:37:42.536Z,89.09
2023-12-26T00:40:09.679Z,88.75
2023-12-26T00:42:36.126Z,88.78
2023-12-26T00:45:02.663Z,88.66
2023-12-26T00:47:29.173Z,88.44
2023-12-26T00:49:58.146Z,88.39
2023-12-26T00:52:26.871Z,88.41
2023-12-26T00:54:53.459Z,88.23
2023-12-26T00:57:19.829Z,87.90
2023-12-26T00:59:47.200Z,88.42
2023-12-26T01:02:13.612Z,88.22
2023-12-26T01:04:39.950Z,87.72
2023-12-26T01:07:07.032Z,88.00
2023-12-26T01:09:34.995Z,87.73
2023-12-26T01:12:01.545Z,87.29
2023-12-26T01:14:28.635Z,87.43
2023-12-26T01:16:55.041Z,87.11
2023-12-26T01:19:21.512Z,87.46
2023-12-26T01:21:47.982Z,87.57
2023-12-26T01:24:14.488Z,88.05
2023-12-26T01:26:40.900Z,87.44
2023-12-26T01:29:08.540Z,87.84
2023-12-26T01:31:36.808Z,87.43
2023-12-26T01:34:04.498Z,87.80
2023-12-26T01:36:31.125Z,87.42
2023-12-26T01:38:58.143Z,87.84
2023-12-26T01:41:24.958Z,87.40
2023-12-26T01:43:51.340Z,87.69
2023-12-26T01:46:18.684Z,87.23
2023-12-26T01:48:46.639Z,87.33
2023-12-26T01:51:15.741Z,87.97
2023-12-26T01:53:43.279Z,87.30
2023-12-26T01:56:12.090Z,87.20
2023-12-26T01:58:39.190Z,87.42
2023-12-26T02:01:05.781Z,88.29
2023-12-26T02:03:34.167Z,88.56
2023-12-26T02:06:01.630Z,88.65
2023-12-26T02:08:29.131Z,88.41
2023-12-26T02:10:55.519Z,88.80
2023-12-26T02:13:22.362Z,89.38
2023-12-26T02:15:52.816Z,88.87
2023-12-26T02:18:19.739Z,88.28
2023-12-26T02:20:46.246Z,88.45
2023-12-26T02:23:12.728Z,88.00
2023-12-26T02:25:39.141Z,87.80
2023-12-26T02:28:07.721Z,88.00
2023-12-26T02:30:36.967Z,87.07
2023-12-26T02:33:04.877Z,87.19
2023-12-26T02:35:31.721Z,87.05
2023-12-26T02:37:58.268Z,86.91
2023-12-26T02:40:25.753Z,86.25
2023-12-26T02:42:52.109Z,86.70
2023-12-26T02:45:18.706Z,86.31
2023-12-26T02:47:45.251Z,86.63
2023-12-26T02:50:11.802Z,86.23
2023-12-26T02:52:38.817Z,86.33
2023-12-26T02:55:05.373Z,85.73
2023-12-26T02:57:31.748Z,85.59
2023-12-26T02:59:58.114Z,85.29
2023-12-26T03:02:24.508Z,85.59
2023-12-26T03:04:51.059Z,85.62
2023-12-26T03:07:17.416Z,85.73
2023-12-26T03:09:43.789Z,85.40
2023-12-26T03:12:10.413Z,85.22
2023-12-26T03:14:36.842Z,85.17
2023-12-26T03:17:03.418Z,84.53
2023-12-26T03:19:29.922Z,84.68
2023-12-26T03:21:56.668Z,84.20
2023-12-26T03:24:23.030Z,84.28
2023-12-26T03:26:49.486Z,83.92
2023-12-26T03:29:15.896Z,83.64
2023-12-26T03:31:45.898Z,84.10
2023-12-26T03:34:13.203Z,83.35
2023-12-26T03:36:45.055Z,83.46
2023-12-26T03:39:11.728Z,83.51
2023-12-26T03:41:38.346Z,83.36
2023-12-26T03:44:04.889Z,83.12
2023-12-26T03:46:31.309Z,83.24
2023-12-26T03:48:57.845Z,82.88
2023-12-26T03:51:24.346Z,82.96
2023-12-26T03:53:50.769Z,82.82
2023-12-26T03:56:17.218Z,83.11
2023-12-26T03:58:43.605Z,82.60
2023-12-26T04:01:13.018Z,82.58
2023-12-26T04:03:39.480Z,82.25
2023-12-26T04:06:06.248Z,82.19
2023-12-26T04:08:32.604Z,82.55
2023-12-26T04:10:58.958Z,82.39
2023-12-26T04:13:25.635Z,82.24
2023-12-26T04:15:52.025Z,82.21
2023-12-26T04:18:19.093Z,82.59
2023-12-26T04:20:45.702Z,82.03
2023-12-26T04:23:12.169Z,82.14
2023-12-26T04:25:38.515Z,82.16
2023-12-26T04:28:04.996Z,82.35
2023-12-26T04:30:31.546Z,81.55
2023-12-26T04:32:58.295Z,81.20
2023-12-26T04:35:24.959Z,81.20
2023-12-26T04:37:51.606Z,80.72
2023-12-26T04:40:18.054Z,81.50
2023-12-26T04:42:44.489Z,81.52
2023-12-26T04:45:12.468Z,80.91
2023-12-26T04:47:39.043Z,81.31
2023-12-26T04:50:06.000Z,80.99
2023-12-26T04:52:32.508Z,80.38
2023-12-26T04:54:59.110Z,80.69
2023-12-26T04:57:25.562Z,81.02
2023-12-26T04:59:52.176Z,80.68
2023-12-26T05:02:18.596Z,80.41
2023-12-26T05:04:45.030Z,80.46
2023-12-26T05:07:11.575Z,80.20
2023-12-26T05:09:38.017Z,80.61
2023-12-26T05:12:04.750Z,80.59
2023-12-26T05:14:31.576Z,79.78
2023-12-26T05:16:57.922Z,79.93
2023-12-26T05:19:24.497Z,80.26
2023-12-26T05:21:52.357Z,80.12
2023-12-26T05:24:18.789Z,80.44
2023-12-26T05:26:45.329Z,80.19
2023-12-26T05:29:12.174Z,80.89
2023-12-26T05:31:39.636Z,80.64
2023-12-26T05:34:09.090Z,81.46
2023-12-26T05:36:36.035Z,81.07
2023-12-26T05:39:02.396Z,81.82
2023-12-26T05:41:28.854Z,81.33
2023-12-26T05:43:55.251Z,81.77
2023-12-26T05:46:21.724Z,82.01
2023-12-26T05:48:48.684Z,81.99
2023-12-26T05:51:15.286Z,81.98
2023-12-26T05:53:41.850Z,82.16
2023-12-26T05:56:08.455Z,82.58
2023-12-26T05:58:34.912Z,83.19
2023-12-26T06:01:02.837Z,82.73
2023-12-26T06:03:29.813Z,82.50
2023-12-26T06:05:56.437Z,83.32
2023-12-26T06:08:22.873Z,83.34
2023-12-26T06:10:49.208Z,83.38
2023-12-26T06:13:15.592Z,83.65
2023-12-26T06:15:42.071Z,83.84
2023-12-26T06:18:08.583Z,83.47
2023-12-26T06:20:35.090Z,83.24
2023-12-26T06:23:01.506Z,83.46
2023-12-26T06:25:27.906Z,83.82
2023-12-26T06:27:54.285Z,83.79
2023-12-26T06:30:20.797Z,83.25
2023-12-26T06:32:47.341Z,83.56
2023-12-26T06:35:14.625Z,83.29
2023-12-26T06:37:41.078Z,83.50
2023-12-26T06:40:08.087Z,84.09
2023-12-26T06:42:34.936Z,83.92
2023-12-26T06:45:01.291Z,83.25
2023-12-26T06:47:27.720Z,83.46
2023-12-26T06:49:54.605Z,83.39
2023-12-26T06:52:21.038Z,83.62
2023-12-26T06:54:47.544Z,82.96
2023-12-26T06:57:17.048Z,83.98
2023-12-26T06:59:49.953Z,83.23
2023-12-26T07:02:16.987Z,83.66
2023-12-26T07:04:43.556Z,83.94
2023-12-26T07:07:09.976Z,84.05
2023-12-26T07:09:36.312Z,83.23
2023-12-26T07:12:02.735Z,83.61
2023-12-26T07:14:29.931Z,83.82
2023-12-26T07:16:56.548Z,83.29
2023-12-26T07:19:23.142Z,83.77
2023-12-26T07:21:49.627Z,83.99
2023-12-26T07:24:16.101Z,83.55
2023-12-26T07:26:42.654Z,83.89
2023-12-26T07:29:09.039Z,83.95
2023-12-26T07:31:35.431Z,84.03
2023-12-26T07:34:04.328Z,84.09
2023-12-26T07:36:30.928Z,83.96
2023-12-26T07:38:57.299Z,84.62
2023-12-26T07:41:23.666Z,84.32
2023-12-26T07:43:52.456Z,84.46
2023-12-26T07:46:18.788Z,84.58
2023-12-26T07:48:45.261Z,83.99
2023-12-26T07:51:11.783Z,84.21
2023-12-26T07:53:38.220Z,84.34
2023-12-26T07:56:04.721Z,84.65
2023-12-26T07:58:31.785Z,84.58
2023-12-26T08:00:58.214Z,84.01
2023-12-26T08:03:24.725Z,85.13
2023-12-26T08:05:51.287Z,85.25
2023-12-26T08:08:17.692Z,85.07
2023-12-26T08:10:45.648Z,84.81
2023-12-26T08:13:12.946Z,85.28
2023-12-26T08:15:39.313Z,84.84
2023-12-26T08:18:06.379Z,85.08
2023-12-26T08:20:38.313Z,84.96
2023-12-26T08:23:04.892Z,84.84
2023-12-26T08:25:31.760Z,85.02
2023-12-26T08:27:58.245Z,85.47
2023-12-26T08:30:24.815Z,85.49
2023-12-26T08:32:51.407Z,85.31
2023-12-26T08:35:18.089Z,85.31
2023-12-26T08:37:44.470Z,85.81
2023-12-26T08:40:10.951Z,85.12
2023-12-26T08:42:37.534Z,85.12
2023-12-26T08:45:04.335Z,85.81
2023-12-26T08:47:30.961Z,85.80
2023-12-26T08:49:58.140Z,85.32
2023-12-26T08:52:24.781Z,85.60
2023-12-26T08:54:51.209Z,86.09
2023-12-26T08:57:17.623Z,85.99
2023-12-26T08:59:44.070Z,85.88
2023-12-26T09:02:10.490Z,86.44
2023-12-26T09:04:37.284Z,85.99
2023-12-26T09:07:04.608Z,85.84
2023-12-26T09:09:31.085Z,86.29
2023-12-26T09:11:57.593Z,86.43
2023-12-26T09:14:24.124Z,86.80
2023-12-26T09:16:50.463Z,86.94
2023-12-26T09:19:17.104Z,86.44
2023-12-26T09:21:43.901Z,87.08
2023-12-26T09:24:10.307Z,87.33
2023-12-26T09:26:36.932Z,87.19
2023-12-26T09:29:03.295Z,87.22
2023-12-26T09:31:29.680Z,87.52
2023-12-26T09:33:56.106Z,87.23
2023-12-26T09:36:22.625Z,87.19
2023-12-26T09:38:49.081Z,87.40
2023-12-26T09:41:19.700Z,86.96
2023-12-26T09:43:46.111Z,87.41
2023-12-26T09:46:12.487Z,87.72
2023-12-26T09:48:39.111Z,87.91
2023-12-26T09:51:10.102Z,89.27
2023-12-26T09:53:43.357Z,89.75
2023-12-26T09:56:10.541Z,89.93
2023-12-26T09:58:44.081Z,90.32
2023-12-26T10:01:14.558Z,90.45
2023-12-26T10:03:43.261Z,91.01
2023-12-26T10:06:09.973Z,91.18
2023-12-26T10:08:36.405Z,90.74
2023-12-26T10:11:02.847Z,91.26
2023-12-26T10:13:43.234Z,91.20
2023-12-26T10:16:09.634Z,90.75
2023-12-26T10:18:36.080Z,90.68
2023-12-26T10:21:02.604Z,90.44
2023-12-26T10:23:29.808Z,90.16
2023-12-26T10:25:56.628Z,90.06
2023-12-26T10:28:22.985Z,89.52
2023-12-26T10:30:49.742Z,89.32
2023-12-26T10:33:24.378Z,88.81
2023-12-26T10:36:02.217Z,88.45
2023-12-26T10:38:29.048Z,89.35
2023-12-26T10:40:57.679Z,90.01
2023-12-26T10:43:24.260Z,90.30
2023-12-26T10:45:52.467Z,90.39
2023-12-26T10:48:20.893Z,90.18
2023-12-26T10:50:49.232Z,90.04
2023-12-26T10:53:18.066Z,89.77
2023-12-26T10:55:46.819Z,88.87
2023-12-26T10:58:13.484Z,87.36
2023-12-26T11:00:41.887Z,87.15
2023-12-26T11:03:08.557Z,86.91
2023-12-26T11:05:35.114Z,86.09
2023-12-26T11:08:01.702Z,86.50
2023-12-26T11:10:28.118Z,87.30
2023-12-26T11:12:54.521Z,88.79
2023-12-26T11:15:20.988Z,90.01
2023-12-26T11:17:47.563Z,91.01
2023-12-26T11:20:14.267Z,90.81
2023-12-26T11:22:40.726Z,91.14
2023-12-26T11:25:07.093Z,90.89
2023-12-26T11:27:33.489Z,90.04
2023-12-26T11:29:59.901Z,90.36
2023-12-26T11:32:26.638Z,89.76
2023-12-26T11:34:53.020Z,89.12
2023-12-26T11:37:19.548Z,89.56
2023-12-26T11:39:45.942Z,89.20
2023-12-26T11:42:12.393Z,88.41
2023-12-26T11:44:38.961Z,88.17
2023-12-26T11:47:05.515Z,88.08
2023-12-26T11:49:32.019Z,87.52
2023-12-26T11:51:58.604Z,87.49
2023-12-26T11:54:25.190Z,87.09
2023-12-26T11:56:51.721Z,86.43
2023-12-26T11:59:18.189Z,85.96
2023-12-26T12:01:44.752Z,86.03
2023-12-26T12:04:11.164Z,86.00
2023-12-26T12:06:37.740Z,86.42
2023-12-26T12:09:05.971Z,86.25
2023-12-26T12:11:33.402Z,85.76
2023-12-26T12:13:59.835Z,86.14
2023-12-26T12:16:26.339Z,85.88
2023-12-26T12:19:02.866Z,86.09
2023-12-26T12:21:39.745Z,85.97
2023-12-26T12:24:06.662Z,85.66
2023-12-26T12:27:05.027Z,86.15
2023-12-26T12:30:00.407Z,86.37
2023-12-26T12:32:34.999Z,87.48
2023-12-26T12:35:15.465Z,88.21
2023-12-26T12:37:42.856Z,88.00
2023-12-26T12:40:09.951Z,87.78
2023-12-26T12:42:37.906Z,87.97
2023-12-26T12:45:05.191Z,87.46
2023-12-26T12:47:32.425Z,86.80
2023-12-26T12:49:59.527Z,86.58
2023-12-26T12:52:26.236Z,85.38
2023-12-26T12:54:52.559Z,85.41
2023-12-26T12:57:18.921Z,85.28
2023-12-26T12:59:45.323Z,85.51
2023-12-26T13:02:13.315Z,85.31
2023-12-26T13:04:43.386Z,85.56
2023-12-26T13:07:10.998Z,86.08
2023-12-26T13:09:38.847Z,85.53
2023-12-26T13:12:05.940Z,85.82
2023-12-26T13:14:32.326Z,85.26
2023-12-26T13:17:02.029Z,85.32
2023-12-26T13:19:31.671Z,85.68
2023-12-26T13:22:00.609Z,85.55
2023-12-26T13:24:27.021Z,85.53
2023-12-26T13:26:53.404Z,86.04
2023-12-26T13:29:26.633Z,86.25
2023-12-26T13:31:55.206Z,86.00
2023-12-26T13:34:28.690Z,86.37
2023-12-26T13:36:55.274Z,86.35
2023-12-26T13:39:21.673Z,86.16
2023-12-26T13:41:48.151Z,85.80
2023-12-26T13:44:17.922Z,86.06
2023-12-26T13:46:44.305Z,86.60
2023-12-26T13:49:11.482Z,86.66
2023-12-26T13:51:38.350Z,85.73
2023-12-26T13:54:05.034Z,85.80
2023-12-26T13:56:31.451Z,85.46
2023-12-26T13:58:57.775Z,86.04
2023-12-26T14:01:24.350Z,85.77
2023-12-26T14:03:51.981Z,85.73
2023-12-26T14:06:20.490Z,85.15
2023-12-26T14:08:52.152Z,85.13
2023-12-26T14:11:19.640Z,85.25
2023-12-26T14:13:47.097Z,85.34
2023-12-26T14:16:15.670Z,84.76
2023-12-26T14:18:42.566Z,84.57
2023-12-26T14:21:09.178Z,84.38
2023-12-26T14:23:35.539Z,84.53
2023-12-26T14:26:01.903Z,84.49
2023-12-26T14:28:28.267Z,83.91
2023-12-26T14:30:54.850Z,83.74
2023-12-26T14:33:21.717Z,83.53
2023-12-26T14:35:49.764Z,83.79
2023-12-26T14:38:16.876Z,83.46
2023-12-26T14:40:46.799Z,83.88
2023-12-26T14:43:14.728Z,83.21
2023-12-26T14:45:41.091Z,83.67
2023-12-26T14:48:07.877Z,84.12
2023-12-26T14:50:34.372Z,84.58
2023-12-26T14:53:00.765Z,84.89
2023-12-26T14:55:27.153Z,84.99
2023-12-26T14:57:53.496Z,84.74
2023-12-26T15:00:19.948Z,85.06
2023-12-26T15:02:48.086Z,85.36
2023-12-26T15:05:15.721Z,85.26
2023-12-26T15:07:42.171Z,85.02
2023-12-26T15:10:08.998Z,85.20
2023-12-26T15:12:35.481Z,85.87
2023-12-26T15:15:01.904Z,86.30
2023-12-26T15:17:28.329Z,86.25
2023-12-26T15:19:55.210Z,86.77
2023-12-26T15:22:21.760Z,86.87
2023-12-26T15:24:48.889Z,87.21
2023-12-26T15:27:15.297Z,87.21
2023-12-26T15:29:41.680Z,88.43
2023-12-26T15:32:10.694Z,88.55
2023-12-26T15:34:38.315Z,88.51
2023-12-26T15:37:04.822Z,88.12
2023-12-26T15:39:31.638Z,88.61
2023-12-26T15:41:58.092Z,88.56
2023-12-26T15:44:24.554Z,89.09
2023-12-26T15:46:50.865Z,88.91
2023-12-26T15:49:17.348Z,89.78
2023-12-26T15:51:43.851Z,89.83
2023-12-26T15:54:10.270Z,89.41
2023-12-26T15:56:36.794Z,90.53
2023-12-26T15:59:05.394Z,91.01
2023-12-26T16:01:31.808Z,90.65
2023-12-26T16:03:58.311Z,91.56
2023-12-26T16:06:27.403Z,91.59
2023-12-26T16:08:55.143Z,92.02
2023-12-26T16:11:21.598Z,92.65
2023-12-26T16:13:48.271Z,91.86
2023-12-26T16:16:14.940Z,92.60
2023-12-26T16:18:42.304Z,93.01
2023-12-26T16:21:09.343Z,93.21
2023-12-26T16:23:36.064Z,93.49
2023-12-26T16:26:06.568Z,94.53
2023-12-26T16:28:36.768Z,94.04
2023-12-26T16:31:04.342Z,94.90
2023-12-26T16:33:31.334Z,95.13
2023-12-26T16:35:59.192Z,95.36
2023-12-26T16:38:25.545Z,94.99
2023-12-26T16:40:52.941Z,95.67
2023-12-26T16:43:19.366Z,94.99
2023-12-26T16:45:45.760Z,95.97
2023-12-26T16:48:13.553Z,95.74
2023-12-26T16:50:40.151Z,95.33
2023-12-26T16:53:06.498Z,95.88
2023-12-26T16:55:33.367Z,95.46
2023-12-26T16:57:59.782Z,95.92
2023-12-26T17:00:27.255Z,95.85
2023-12-26T17:02:53.830Z,95.38
2023-12-26T17:05:20.589Z,95.08
2023-12-26T17:07:47.084Z,95.19
2023-12-26T17:10:13.512Z,94.27
2023-12-26T17:12:41.012Z,94.21
2023-12-26T17:15:08.075Z,94.00
2023-12-26T17:17:34.525Z,93.87
2023-12-26T17:20:01.177Z,93.72
2023-12-26T17:22:27.627Z,93.78
2023-12-26T17:24:53.989Z,94.51
2023-12-26T17:27:20.485Z,93.80
2023-12-26T17:29:46.920Z,94.13
2023-12-26T17:32:13.339Z,93.18
2023-12-26T17:34:40.049Z,93.53
2023-12-26T17:37:06.544Z,92.75
2023-12-26T17:39:32.959Z,92.55
2023-12-26T17:41:59.353Z,92.97
2023-12-26T17:44:25.849Z,93.21
2023-12-26T17:46:52.299Z,92.91
2023-12-26T17:49:18.819Z,93.52
2023-12-26T17:51:45.358Z,94.13
2023-12-26T17:54:12.081Z,93.57
2023-12-26T17:56:38.519Z,94.44
2023-12-26T17:59:05.729Z,93.91
2023-12-26T18:01:32.178Z,94.37
2023-12-26T18:03:58.651Z,94.23
2023-12-26T18:06:25.239Z,94.45
2023-12-26T18:08:51.745Z,94.92
2023-12-26T18:11:18.164Z,94.48
2023-12-26T18:13:44.529Z,94.74
2023-12-26T18:16:11.150Z,95.12
2023-12-26T18:18:37.824Z,95.42
2023-12-26T18:21:04.391Z,96.12
2023-12-26T18:23:30.755Z,95.28
2023-12-26T18:25:58.074Z,95.57
2023-12-26T18:28:24.447Z,96.13
2023-12-26T18:30:51.029Z,96.48
2023-12-26T18:33:19.282Z,96.27
2023-12-26T18:35:45.737Z,96.07
2023-12-26T18:38:12.166Z,95.92
2023-12-26T18:40:40.439Z,96.46
2023-12-26T18:43:07.142Z,96.13
2023-12-26T18:45:33.668Z,95.52
2023-12-26T18:48:00.364Z,95.84
2023-12-26T18:50:27.043Z,96.11
2023-12-26T18:52:53.361Z,95.24
2023-12-26T18:55:19.690Z,94.86
2023-12-26T18:57:46.050Z,95.17
2023-12-26T19:00:12.662Z,95.48
2023-12-26T19:02:39.016Z,95.24
2023-12-26T19:05:05.799Z,95.23
2023-12-26T19:07:32.123Z,95.88
2023-12-26T19:09:58.472Z,95.72
2023-12-26T19:12:25.517Z,95.38
2023-12-26T19:14:52.009Z,95.88
2023-12-26T19:17:22.380Z,95.53
2023-12-26T19:19:48.987Z,95.33
2023-12-26T19:22:15.528Z,96.00
2023-12-26T19:24:41.955Z,95.99
2023-12-26T19:27:08.405Z,96.13
2023-12-26T19:29:34.825Z,96.02
2023-12-26T19:32:01.196Z,96.09
2023-12-26T19:34:27.771Z,95.14
2023-12-26T19:36:54.166Z,95.81
2023-12-26T19:39:20.612Z,95.68
2023-12-26T19:41:47.073Z,95.70
2023-12-26T19:44:16.054Z,95.86
2023-12-26T19:46:42.395Z,94.94
2023-12-26T19:49:08.853Z,95.59
2023-12-26T19:51:39.980Z,95.10
2023-12-26T19:54:06.890Z,94.75
2023-12-26T19:56:33.299Z,94.44
2023-12-26T19:58:59.663Z,94.99
2023-12-26T20:01:26.420Z,94.50
2023-12-26T20:03:53.761Z,94.20
2023-12-26T20:06:20.297Z,94.53
2023-12-26T20:08:46.742Z,94.94
2023-12-26T20:11:13.464Z,95.62
2023-12-26T20:13:40.702Z,95.91
2023-12-26T20:16:07.071Z,95.73
2023-12-26T20:18:33.770Z,96.43
2023-12-26T20:21:03.784Z,96.56
2023-12-26T20:23:31.119Z,96.66
2023-12-26T20:25:57.503Z,95.99
2023-12-26T20:28:23.862Z,95.75
2023-12-26T20:30:50.496Z,96.90
2023-12-26T20:33:17.207Z,96.47
2023-12-26T20:35:43.866Z,97.28
2023-12-26T20:38:10.278Z,96.82
2023-12-26T20:40:36.810Z,97.51
2023-12-26T20:43:03.604Z,97.65
2023-12-26T20:45:29.989Z,97.14
2023-12-26T20:47:57.220Z,97.22
2023-12-26T20:50:24.005Z,96.96
2023-12-26T20:52:50.340Z,97.54
2023-12-26T20:55:16.719Z,97.28
2023-12-26T20:57:43.180Z,97.86
2023-12-26T21:00:10.482Z,97.67
2023-12-26T21:02:36.931Z,98.48
2023-12-26T21:05:03.378Z,98.72
2023-12-26T21:07:29.772Z,98.85
2023-12-26T21:09:56.106Z,98.94
2023-12-26T21:12:23.142Z,98.69
2023-12-26T21:14:49.602Z,99.16
2023-12-26T21:17:16.091Z,99.40
2023-12-26T21:19:44.282Z,98.49
2023-12-26T21:22:10.983Z,98.70
2023-12-26T21:24:37.452Z,98.58
2023-12-26T21:27:04.425Z,98.33
2023-12-26T21:29:30.826Z,98.56
2023-12-26T21:31:57.194Z,98.79
2023-12-26T21:34:23.790Z,99.16
2023-12-26T21:36:50.296Z,98.65
2023-12-26T21:39:19.530Z,98.72
2023-12-26T21:41:46.028Z,98.77
2023-12-26T21:44:14.919Z,98.57
2023-12-26T21:46:46.456Z,98.68
2023-12-26T21:49:13.790Z,99.30
2023-12-26T21:51:40.529Z,98.60
2023-12-26T21:54:06.988Z,98.74
2023-12-26T21:56:33.361Z,98.69
2023-12-26T21:58:59.732Z,99.16
2023-12-26T22:01:26.530Z,99.57
2023-12-26T22:03:52.937Z,99.58
2023-12-26T22:06:19.401Z,100.00
2023-12-26T22:08:45.814Z,100.00
2023-12-26T22:11:12.162Z,100.00
2023-12-26T22:13:38.483Z,100.00
2023-12-26T22:16:05.451Z,100.00
2023-12-26T22:18:32.105Z,100.00
2023-12-26T22:20:58.589Z,100.00
2023-12-26T22:23:25.303Z,100.00
2023-12-26T22:25:51.679Z,100.00
2023-12-26T22:28:18.104Z,100.00
2023-12-26T22:30:46.638Z,100.00
2023-12-26T22:33:13.249Z,100.00
2023-12-26T22:35:40.782Z,100.00
2023-12-26T22:38:07.240Z,100.00
2023-12-26T22:40:33.595Z,100.00
2023-12-26T22:43:01.722Z,100.00
2023-12-26T22:45:30.333Z,100.00
2023-12-26T22:47:57.192Z,100.00
2023-12-26T22:50:23.673Z,100.00
2023-12-26T22:52:50.103Z,100.00
2023-12-26T22:55:16.596Z,100.00
2023-12-26T22:57:43.049Z,100.00
2023-12-26T23:00:16.538Z,100.00
2023-12-26T23:02:42.989Z,100.00
2023-12-26T23:05:09.702Z,100.00
2023-12-26T23:07:36.286Z,100.00
2023-12-26T23:10:02.734Z,100.00
2023-12-26T23:12:29.150Z,99.92
2023-12-26T23:14:55.778Z,99.99
2023-12-26T23:17:22.382Z,100.00
2023-12-26T23:19:48.980Z,100.00
2023-12-26T23:22:15.460Z,100.00
2023-12-26T23:24:41.978Z,99.93
2023-12-26T23:27:09.264Z,100.00
2023-12-26T23:29:35.781Z,99.61
2023-12-26T23:32:02.339Z,99.95
2023-12-26T23:34:38.615Z,99.32
2023-12-26T23:37:10.542Z,99.63
2023-12-26T23:39:36.977Z,100.00
2023-12-26T23:42:05.353Z,100.00
2023-12-26T23:44:32.222Z,100.00
2023-12-26T23:46:58.811Z,99.96
2023-12-26T23:49:25.272Z,100.00
2023-12-26T23:51:53.968Z,100.00
2023-12-26T23:54:21.719Z,100.00
2023-12-26T23:56:48.510Z,100.00
2023-12-26T23:59:14.944Z,100.00
